createdAt,value
2018-09-22T00:02:20.105Z,52.15
2018-09-22T00:04:47.794Z,51.50
2018-09-22T00:07:15.617Z,51.44
2018-09-22T00:09:43.440Z,51.95
2018-09-22T00:12:11.140Z,51.31
2018-09-22T00:14:38.922Z,51.32
2018-09-22T00:17:06.781Z,51.45
2018-09-22T00:19:34.593Z,51.61
2018-09-22T00:22:02.397Z,51.16
2018-09-22T00:24:30.218Z,51.05
2018-09-22T00:26:58.531Z,50.96
2018-09-22T00:29:26.280Z,51.03
2018-09-22T00:31:54.007Z,50.94
2018-09-22T00:34:21.701Z,50.86
2018-09-22T00:36:49.506Z,51.72
2018-09-22T00:39:17.317Z,51.64
2018-09-22T00:41:45.038Z,51.46
2018-09-22T00:44:12.719Z,51.78
2018-09-22T00:46:40.505Z,51.93
2018-09-22T00:49:08.181Z,51.46
2018-09-22T00:51:35.865Z,51.71
2018-09-22T00:54:03.749Z,51.46
2018-09-22T00:56:31.581Z,52.12
2018-09-22T00:58:59.329Z,52.22
2018-09-22T01:01:27.180Z,51.92
2018-09-22T01:03:54.996Z,51.40
2018-09-22T01:06:22.726Z,51.70
2018-09-22T01:08:50.429Z,52.07
2018-09-22T01:11:18.116Z,51.65
2018-09-22T01:13:45.977Z,51.22
2018-09-22T01:16:13.671Z,51.73
2018-09-22T01:18:41.363Z,52.04
2018-09-22T01:21:09.101Z,52.57
2018-09-22T01:23:36.760Z,52.58
2018-09-22T01:26:04.573Z,52.69
2018-09-22T01:28:32.516Z,52.81
2018-09-22T01:31:00.317Z,52.81
2018-09-22T01:33:28.006Z,52.87
2018-09-22T01:35:55.789Z,52.95
2018-09-22T01:38:23.462Z,53.05
2018-09-22T01:40:51.139Z,53.61
2018-09-22T01:43:18.902Z,53.20
2018-09-22T01:45:46.643Z,53.77
2018-09-22T01:48:14.576Z,53.50
2018-09-22T01:50:42.303Z,52.96
2018-09-22T01:53:10.610Z,53.32
2018-09-22T01:55:38.283Z,53.77
2018-09-22T01:58:06.049Z,53.63
2018-09-22T02:00:33.740Z,54.12
2018-09-22T02:03:01.396Z,54.07
2018-09-22T02:05:29.106Z,53.78
2018-09-22T02:07:56.777Z,54.46
2018-09-22T02:10:24.475Z,54.44
2018-09-22T02:12:52.156Z,54.30
2018-09-22T02:15:19.916Z,54.04
2018-09-22T02:17:47.649Z,53.97
2018-09-22T02:20:15.388Z,54.57
2018-09-22T02:22:43.090Z,53.91
2018-09-22T02:25:10.767Z,54.01
2018-09-22T02:27:38.457Z,53.80
2018-09-22T02:30:06.269Z,53.72
2018-09-22T02:32:33.982Z,53.66
2018-09-22T02:35:01.648Z,53.82
2018-09-22T02:37:29.441Z,53.80
2018-09-22T02:39:57.297Z,54.16
2018-09-22T02:42:25.090Z,53.84
2018-09-22T02:44:52.846Z,53.78
2018-09-22T02:47:20.647Z,53.93
2018-09-22T02:49:48.435Z,53.98
2018-09-22T02:52:16.225Z,53.95
2018-09-22T02:54:43.917Z,54.26
2018-09-22T02:57:11.606Z,54.32
2018-09-22T02:59:39.296Z,54.57
2018-09-22T03:02:07.026Z,54.19
2018-09-22T03:04:34.698Z,54.32
2018-09-22T03:07:02.381Z,54.15
2018-09-22T03:09:30.071Z,54.28
2018-09-22T03:11:57.758Z,54.34
2018-09-22T03:14:25.432Z,54.45
2018-09-22T03:16:53.189Z,54.64
2018-09-22T03:19:20.894Z,55.25
2018-09-22T03:21:48.583Z,54.59
2018-09-22T03:24:16.317Z,54.43
2018-09-22T03:26:44.065Z,54.59
2018-09-22T03:29:11.748Z,54.91
2018-09-22T03:31:39.427Z,54.61
2018-09-22T03:34:07.178Z,54.39
2018-09-22T03:36:34.886Z,54.91
2018-09-22T03:39:02.844Z,54.19
2018-09-22T03:41:30.508Z,54.94
2018-09-22T03:43:58.209Z,54.93
2018-09-22T03:46:25.923Z,54.76
2018-09-22T03:48:53.579Z,54.79
2018-09-22T03:51:21.252Z,55.28
2018-09-22T03:53:48.979Z,55.40
2018-09-22T03:56:16.763Z,54.94
2018-09-22T03:58:44.483Z,55.17
2018-09-22T04:01:12.294Z,55.26
2018-09-22T04:03:40.061Z,55.38
2018-09-22T04:06:07.868Z,55.36
2018-09-22T04:08:36.057Z,55.58
2018-09-22T04:11:03.756Z,55.43
2018-09-22T04:13:31.458Z,55.40
2018-09-22T04:15:59.134Z,55.60
2018-09-22T04:18:26.823Z,55.73
2018-09-22T04:20:54.496Z,55.17
2018-09-22T04:23:22.220Z,54.67
2018-09-22T04:25:49.916Z,54.96
2018-09-22T04:28:17.603Z,54.88
2018-09-22T04:30:45.339Z,54.83
2018-09-22T04:33:13.048Z,55.14
2018-09-22T04:35:40.754Z,55.59
2018-09-22T04:38:08.607Z,55.11
2018-09-22T04:40:36.285Z,55.01
2018-09-22T04:43:03.990Z,54.87
2018-09-22T04:45:31.786Z,54.72
2018-09-22T04:47:59.483Z,54.82
2018-09-22T04:50:27.156Z,54.86
2018-09-22T04:52:54.812Z,55.04
2018-09-22T04:55:22.489Z,54.97
2018-09-22T04:57:50.198Z,54.77
2018-09-22T05:00:17.910Z,54.90
2018-09-22T05:02:45.657Z,55.40
2018-09-22T05:05:13.408Z,54.96
2018-09-22T05:07:41.234Z,55.10
2018-09-22T05:10:08.933Z,55.41
2018-09-22T05:12:36.712Z,55.19
2018-09-22T05:15:04.519Z,55.41
2018-09-22T05:17:32.232Z,54.90
2018-09-22T05:20:00.003Z,54.89
2018-09-22T05:22:27.828Z,54.36
2018-09-22T05:24:55.564Z,54.73
2018-09-22T05:27:23.393Z,54.92
2018-09-22T05:29:51.238Z,55.33
2018-09-22T05:32:18.947Z,55.28
2018-09-22T05:34:46.722Z,55.10
2018-09-22T05:37:14.488Z,54.66
2018-09-22T05:39:42.278Z,54.35
2018-09-22T05:42:10.015Z,54.28
2018-09-22T05:44:37.767Z,54.20
2018-09-22T05:47:07.065Z,54.19
2018-09-22T05:49:35.482Z,53.61
2018-09-22T05:52:03.634Z,53.28
2018-09-22T05:54:31.519Z,52.65
2018-09-22T05:56:59.749Z,52.17
2018-09-22T05:59:28.013Z,52.17
2018-09-22T06:01:56.188Z,52.48
2018-09-22T06:04:24.126Z,52.83
2018-09-22T06:06:52.142Z,51.97
2018-09-22T06:09:20.257Z,52.64
2018-09-22T06:11:48.497Z,52.55
2018-09-22T06:14:16.776Z,52.55
2018-09-22T06:16:44.869Z,52.16
2018-09-22T06:19:12.977Z,52.05
2018-09-22T06:21:41.158Z,52.37
2018-09-22T06:24:09.298Z,52.46
2018-09-22T06:26:37.481Z,52.28
2018-09-22T06:29:05.914Z,51.45
2018-09-22T06:31:33.961Z,51.25
2018-09-22T06:34:02.407Z,50.59
2018-09-22T06:36:30.230Z,51.26
2018-09-22T06:38:57.995Z,51.60
2018-09-22T06:41:25.750Z,51.50
2018-09-22T06:43:53.502Z,50.85
2018-09-22T06:46:21.420Z,51.25
2018-09-22T06:48:49.505Z,51.15
2018-09-22T06:51:17.310Z,51.13
2018-09-22T06:53:46.271Z,51.04
2018-09-22T06:56:15.033Z,50.47
2018-09-22T06:58:43.126Z,49.77
2018-09-22T07:01:11.776Z,49.37
2018-09-22T07:03:39.535Z,49.92
2018-09-22T07:06:07.546Z,49.84
2018-09-22T07:08:35.318Z,49.72
2018-09-22T07:11:03.073Z,49.78
2018-09-22T07:13:30.841Z,49.90
2018-09-22T07:15:58.589Z,50.02
2018-09-22T07:18:26.364Z,49.81
2018-09-22T07:20:59.716Z,49.68
2018-09-22T07:23:27.406Z,49.05
2018-09-22T07:25:55.088Z,49.68
2018-09-22T07:28:22.923Z,49.47
2018-09-22T07:30:50.971Z,49.09
2018-09-22T07:33:18.712Z,48.65
2018-09-22T07:35:46.474Z,48.07
2018-09-22T07:38:14.216Z,47.72
2018-09-22T07:40:41.907Z,47.82
2018-09-22T07:43:09.625Z,47.20
2018-09-22T07:45:37.522Z,46.92
2018-09-22T07:48:07.263Z,46.72
2018-09-22T07:50:35.639Z,46.43
2018-09-22T07:53:03.662Z,47.14
2018-09-22T07:55:31.557Z,46.86
2018-09-22T07:57:59.565Z,46.85
2018-09-22T08:00:27.695Z,47.51
2018-09-22T08:02:55.467Z,47.63
2018-09-22T08:05:23.211Z,47.46
2018-09-22T08:07:51.197Z,42.34
2018-09-22T08:10:19.203Z,37.94
2018-09-22T08:12:47.250Z,37.20
2018-09-22T08:15:15.081Z,36.43
2018-09-22T08:17:42.859Z,34.37
2018-09-22T08:20:10.661Z,33.52
2018-09-22T08:22:38.375Z,32.73
2018-09-22T08:25:06.147Z,34.97
2018-09-22T08:27:34.345Z,31.85
2018-09-22T08:30:02.210Z,29.16
2018-09-22T08:32:30.543Z,29.03
2018-09-22T08:34:58.625Z,27.84
2018-09-22T08:37:26.904Z,28.91
2018-09-22T08:39:55.096Z,28.83
2018-09-22T08:42:22.953Z,29.10
2018-09-22T08:44:50.895Z,28.54
2018-09-22T08:47:18.795Z,31.27
2018-09-22T08:49:46.882Z,30.81
2018-09-22T08:52:14.696Z,30.61
2018-09-22T08:54:42.619Z,32.12
2018-09-22T08:57:10.628Z,32.93
2018-09-22T08:59:38.636Z,33.50
2018-09-22T09:02:06.819Z,34.13
2018-09-22T09:04:34.625Z,33.41
2018-09-22T09:07:02.597Z,32.44
2018-09-22T09:09:30.502Z,33.55
2018-09-22T09:11:58.497Z,33.06
2018-09-22T09:14:26.265Z,31.22
2018-09-22T09:16:54.247Z,29.88
2018-09-22T09:19:22.129Z,29.28
2018-09-22T09:21:50.087Z,29.12
2018-09-22T09:24:17.997Z,28.41
2018-09-22T09:26:45.927Z,31.00
2018-09-22T09:29:13.669Z,30.82
2018-09-22T09:31:41.325Z,31.56
2018-09-22T09:34:09.033Z,31.81
2018-09-22T09:36:36.713Z,32.09
2018-09-22T09:39:04.911Z,33.85
2018-09-22T09:41:32.663Z,33.00
2018-09-22T09:44:00.353Z,34.50
2018-09-22T09:49:02.621Z,34.85
2018-09-22T09:51:30.559Z,34.17
2018-09-22T09:53:58.237Z,34.85
2018-09-22T09:56:25.919Z,34.33
2018-09-22T09:58:53.690Z,34.70
2018-09-22T10:01:21.361Z,34.57
2018-09-22T10:03:49.090Z,32.62
2018-09-22T10:06:16.942Z,33.11
2018-09-22T10:08:44.640Z,34.43
2018-09-22T10:11:12.360Z,34.49
2018-09-22T10:13:40.159Z,34.34
2018-09-22T10:16:07.986Z,34.35
2018-09-22T10:18:35.805Z,34.24
2018-09-22T10:21:03.741Z,34.40
2018-09-22T10:23:31.447Z,34.80
2018-09-22T10:25:59.246Z,33.67
2018-09-22T10:28:27.099Z,34.02
2018-09-22T10:30:55.071Z,34.35
2018-09-22T10:33:22.824Z,34.89
2018-09-22T10:35:50.654Z,35.43
2018-09-22T10:38:18.511Z,34.65
2018-09-22T10:40:46.263Z,34.10
2018-09-22T10:43:14.189Z,33.76
2018-09-22T10:45:41.934Z,34.70
2018-09-22T10:48:09.689Z,35.22
2018-09-22T10:50:37.616Z,34.97
2018-09-22T10:53:05.784Z,33.80
2018-09-22T10:55:33.603Z,34.57
2018-09-22T10:58:01.324Z,34.37
2018-09-22T11:00:29.059Z,33.58
2018-09-22T11:02:56.800Z,33.74
2018-09-22T11:05:24.582Z,33.95
2018-09-22T11:07:52.322Z,32.83
2018-09-22T11:10:20.086Z,32.67
2018-09-22T11:12:48.014Z,32.04
2018-09-22T11:15:15.780Z,32.43
2018-09-22T11:17:43.593Z,33.06
2018-09-22T11:20:11.431Z,33.20
2018-09-22T11:22:39.210Z,32.83
2018-09-22T11:25:07.198Z,33.54
2018-09-22T11:27:34.987Z,34.12
2018-09-22T11:30:02.734Z,34.07
2018-09-22T11:32:30.594Z,33.24
2018-09-22T11:34:58.382Z,31.31
2018-09-22T11:37:26.198Z,30.56
2018-09-22T11:39:54.315Z,29.92
2018-09-22T11:42:22.529Z,29.16
2018-09-22T11:44:50.863Z,27.21
2018-09-22T11:47:18.837Z,26.72
2018-09-22T11:49:46.566Z,26.42
2018-09-22T11:52:14.452Z,25.30
2018-09-22T11:54:42.147Z,24.69
2018-09-22T11:57:09.905Z,24.13
2018-09-22T11:59:37.625Z,24.82
2018-09-22T12:02:05.703Z,25.19
2018-09-22T12:04:33.549Z,26.08
2018-09-22T12:07:01.368Z,26.28
2018-09-22T12:09:29.117Z,27.01
2018-09-22T12:11:56.898Z,26.31
2018-09-22T12:14:24.752Z,26.07
2018-09-22T12:16:52.511Z,26.23
2018-09-22T12:19:20.318Z,26.46
2018-09-22T12:21:48.134Z,26.77
2018-09-22T12:24:16.152Z,26.80
2018-09-22T12:26:43.894Z,27.29
2018-09-22T12:29:11.694Z,27.27
2018-09-22T12:31:39.428Z,26.47
2018-09-22T12:34:07.189Z,26.12
2018-09-22T12:36:34.973Z,26.13
2018-09-22T12:39:02.956Z,24.40
2018-09-22T12:41:30.693Z,25.44
2018-09-22T12:43:58.482Z,24.77
2018-09-22T12:46:26.297Z,25.90
2018-09-22T12:48:54.044Z,26.90
2018-09-22T12:51:21.883Z,27.22
2018-09-22T12:53:49.748Z,28.31
2018-09-22T12:56:17.545Z,28.75
2018-09-22T12:58:45.323Z,29.53
2018-09-22T13:01:13.028Z,29.46
2018-09-22T13:03:40.790Z,29.85
2018-09-22T13:06:08.560Z,29.96
2018-09-22T13:08:36.214Z,30.14
2018-09-22T13:11:03.947Z,29.65
2018-09-22T13:13:31.903Z,29.78
2018-09-22T13:15:59.588Z,29.09
2018-09-22T13:18:27.390Z,30.08
2018-09-22T13:20:55.211Z,30.34
2018-09-22T13:23:22.958Z,30.22
2018-09-22T13:25:50.738Z,29.96
2018-09-22T13:28:18.550Z,30.07
2018-09-22T13:30:46.294Z,29.05
2018-09-22T13:33:14.014Z,28.81
2018-09-22T13:35:41.802Z,28.29
2018-09-22T13:38:09.530Z,28.12
2018-09-22T13:40:37.235Z,29.01
2018-09-22T13:43:05.125Z,29.28
2018-09-22T13:45:33.037Z,29.33
2018-09-22T13:48:00.779Z,28.66
2018-09-22T13:50:28.501Z,28.67
2018-09-22T13:52:56.332Z,29.43
2018-09-22T13:55:24.115Z,29.52
2018-09-22T13:57:51.985Z,29.30
2018-09-22T14:00:19.717Z,29.65
2018-09-22T14:02:47.452Z,29.63
2018-09-22T14:05:15.254Z,30.02
2018-09-22T14:07:42.992Z,29.69
2018-09-22T14:10:10.861Z,29.09
2018-09-22T14:12:38.682Z,28.74
2018-09-22T14:15:06.442Z,28.55
2018-09-22T14:17:34.278Z,28.74
2018-09-22T14:20:01.997Z,28.74
2018-09-22T14:22:29.730Z,28.83
2018-09-22T14:24:57.454Z,28.96
2018-09-22T14:27:25.290Z,28.67
2018-09-22T14:29:52.962Z,28.93
2018-09-22T14:32:20.693Z,29.67
2018-09-22T14:34:48.473Z,29.72
2018-09-22T14:37:16.212Z,30.05
2018-09-22T14:39:43.933Z,30.16
2018-09-22T14:42:11.796Z,29.94
2018-09-22T14:44:39.610Z,30.17
2018-09-22T14:47:07.403Z,30.16
2018-09-22T14:49:35.170Z,30.55
2018-09-22T14:52:02.965Z,30.77
2018-09-22T14:54:30.769Z,31.34
2018-09-22T14:56:58.599Z,31.60
2018-09-22T14:59:26.437Z,32.47
2018-09-22T15:01:54.219Z,32.01
2018-09-22T15:04:21.928Z,32.03
2018-09-22T15:06:49.664Z,32.60
2018-09-22T15:09:17.384Z,32.73
2018-09-22T15:11:45.254Z,32.80
2018-09-22T15:14:13.020Z,32.77
2018-09-22T15:16:40.798Z,32.80
2018-09-22T15:19:08.491Z,32.99
2018-09-22T15:21:36.286Z,33.22
2018-09-22T15:24:04.041Z,32.84
2018-09-22T15:26:31.870Z,33.35
2018-09-22T15:28:59.809Z,33.21
2018-09-22T15:31:27.541Z,33.16
2018-09-22T15:33:55.310Z,33.47
2018-09-22T15:36:23.041Z,33.26
2018-09-22T15:38:50.889Z,33.57
2018-09-22T15:41:18.708Z,33.23
2018-09-22T15:43:46.494Z,33.04
2018-09-22T15:46:14.276Z,33.67
2018-09-22T15:48:41.993Z,33.21
2018-09-22T15:51:09.833Z,33.49
2018-09-22T15:53:37.630Z,32.60
2018-09-22T15:56:05.489Z,33.02
2018-09-22T15:58:33.304Z,32.56
2018-09-22T16:01:01.932Z,33.03
2018-09-22T16:03:29.801Z,33.13
2018-09-22T16:05:57.508Z,32.97
2018-09-22T16:08:26.651Z,33.33
2018-09-22T16:10:55.501Z,33.71
2018-09-22T16:13:23.527Z,33.46
2018-09-22T16:15:51.314Z,33.77
2018-09-22T16:18:19.116Z,33.19
2018-09-22T16:20:46.960Z,33.60
2018-09-22T16:23:14.758Z,34.05
2018-09-22T16:25:42.490Z,33.97
2018-09-22T16:28:10.249Z,34.15
2018-09-22T16:30:37.948Z,34.77
2018-09-22T16:33:05.919Z,34.33
2018-09-22T16:35:33.653Z,34.26
2018-09-22T16:38:01.633Z,34.08
2018-09-22T16:40:29.482Z,34.39
2018-09-22T16:42:57.208Z,34.14
2018-09-22T16:45:25.056Z,34.22
2018-09-22T16:47:52.860Z,34.82
2018-09-22T16:50:20.663Z,34.52
2018-09-22T16:52:48.424Z,34.68
2018-09-22T16:55:16.170Z,34.51
2018-09-22T16:57:43.993Z,34.52
2018-09-22T17:00:11.858Z,34.43
2018-09-22T17:02:39.705Z,34.93
2018-09-22T17:05:07.512Z,34.87
2018-09-22T17:07:35.281Z,34.81
2018-09-22T17:10:03.004Z,35.38
2018-09-22T17:12:30.761Z,35.12
2018-09-22T17:14:58.495Z,35.51
2018-09-22T17:17:26.269Z,35.58
2018-09-22T17:19:54.062Z,35.73
2018-09-22T17:22:21.838Z,36.48
2018-09-22T17:24:49.567Z,36.57
2018-09-22T17:27:17.342Z,36.76
2018-09-22T17:29:45.099Z,36.42
2018-09-22T17:32:12.937Z,36.82
2018-09-22T17:34:40.642Z,37.09
2018-09-22T17:37:08.432Z,36.77
2018-09-22T17:39:36.263Z,37.03
2018-09-22T17:42:04.039Z,36.92
2018-09-22T17:44:31.799Z,37.12
2018-09-22T17:46:59.489Z,37.36
2018-09-22T17:49:27.469Z,37.54
2018-09-22T17:51:55.257Z,37.42
2018-09-22T17:54:22.983Z,37.62
2018-09-22T17:56:50.838Z,37.82
2018-09-22T17:59:18.570Z,38.35
2018-09-22T18:01:46.313Z,38.53
2018-09-22T18:04:14.114Z,38.41
2018-09-22T18:06:41.900Z,38.45
2018-09-22T18:09:09.798Z,38.41
2018-09-22T18:11:38.164Z,38.00
2018-09-22T18:14:05.990Z,38.20
2018-09-22T18:16:33.695Z,38.70
2018-09-22T18:19:01.508Z,39.09
2018-09-22T18:21:29.341Z,39.01
2018-09-22T18:23:57.025Z,39.04
2018-09-22T18:26:24.774Z,38.67
2018-09-22T18:28:52.629Z,38.59
2018-09-22T18:31:20.318Z,38.92
2018-09-22T18:33:48.134Z,38.94
2018-09-22T18:36:15.948Z,39.07
2018-09-22T18:38:43.969Z,39.03
2018-09-22T18:41:11.837Z,39.61
2018-09-22T18:43:39.629Z,39.73
2018-09-22T18:46:07.607Z,39.80
2018-09-22T18:48:35.285Z,39.67
2018-09-22T18:51:03.046Z,39.87
2018-09-22T18:53:31.106Z,40.05
2018-09-22T18:55:59.195Z,40.42
2018-09-22T18:58:39.829Z,40.36
2018-09-22T19:01:07.573Z,39.99
2018-09-22T19:03:35.384Z,40.28
2018-09-22T19:06:03.494Z,40.44
2018-09-22T19:08:31.192Z,40.47
2018-09-22T19:10:59.033Z,40.43
2018-09-22T19:13:38.332Z,40.93
2018-09-22T19:16:11.543Z,40.80
2018-09-22T19:18:52.056Z,41.02
2018-09-22T19:21:24.270Z,41.34
2018-09-22T19:23:56.022Z,41.33
2018-09-22T19:26:27.126Z,41.37
2018-09-22T19:28:58.570Z,41.17
2018-09-22T19:31:30.054Z,41.65
2018-09-22T19:34:02.366Z,41.91
2018-09-22T19:37:07.671Z,41.73
2018-09-22T19:39:55.210Z,41.94
2018-09-22T19:42:33.897Z,41.50
2018-09-22T19:45:06.471Z,41.51
2018-09-22T19:49:40.693Z,41.16
2018-09-22T19:52:11.571Z,41.80
2018-09-22T19:54:39.414Z,41.87
2018-09-22T19:57:07.233Z,42.00
2018-09-22T19:59:35.121Z,41.76
2018-09-22T20:02:02.989Z,41.90
2018-09-22T20:04:42.180Z,42.32
2018-09-22T20:07:10.726Z,41.81
2018-09-22T20:09:38.517Z,41.35
2018-09-22T20:12:06.372Z,41.50
2018-09-22T20:14:34.073Z,41.85
2018-09-22T20:17:01.773Z,41.78
2018-09-22T20:19:29.505Z,41.54
2018-09-22T20:21:58.088Z,41.55
2018-09-22T20:24:26.878Z,41.94
2018-09-22T20:26:55.076Z,41.86
2018-09-22T20:29:23.374Z,41.62
2018-09-22T20:31:51.169Z,41.87
2018-09-22T20:34:19.001Z,41.76
2018-09-22T20:36:46.753Z,41.72
2018-09-22T20:39:14.650Z,42.06
2018-09-22T20:41:42.499Z,42.17
2018-09-22T20:44:10.394Z,42.60
2018-09-22T20:46:38.300Z,42.98
2018-09-22T20:49:06.136Z,43.17
2018-09-22T20:51:33.929Z,43.14
2018-09-22T20:54:01.697Z,43.53
2018-09-22T20:56:29.445Z,43.50
2018-09-22T20:58:57.161Z,43.24
2018-09-22T21:01:24.988Z,43.38
2018-09-22T21:03:52.738Z,43.41
2018-09-22T21:06:20.762Z,43.28
2018-09-22T21:08:48.494Z,43.82
2018-09-22T21:11:16.202Z,43.67
2018-09-22T21:13:43.873Z,43.17
2018-09-22T21:16:11.736Z,42.83
2018-09-22T21:18:39.456Z,42.95
2018-09-22T21:21:07.215Z,43.51
2018-09-22T21:23:34.987Z,43.43
2018-09-22T21:26:02.747Z,43.12
2018-09-22T21:28:30.524Z,43.14
2018-09-22T21:30:58.321Z,43.53
2018-09-22T21:33:26.048Z,43.59
2018-09-22T21:35:53.821Z,43.87
2018-09-22T21:38:21.625Z,44.41
2018-09-22T21:40:49.636Z,43.76
2018-09-22T21:43:17.644Z,43.98
2018-09-22T21:45:45.415Z,43.86
2018-09-22T21:48:13.208Z,43.89
2018-09-22T21:50:42.448Z,44.20
2018-09-22T21:53:10.229Z,44.69
2018-09-22T21:55:38.225Z,44.44
2018-09-22T21:58:06.000Z,44.42
2018-09-22T22:00:33.758Z,44.67
2018-09-22T22:03:01.532Z,44.37
2018-09-22T22:05:29.737Z,44.35
2018-09-22T22:07:57.682Z,44.13
2018-09-22T22:10:25.745Z,44.65
2018-09-22T22:12:53.749Z,44.79
2018-09-22T22:15:21.646Z,45.12
2018-09-22T22:17:49.399Z,44.93
2018-09-22T22:20:19.240Z,45.26
2018-09-22T22:22:47.228Z,45.70
2018-09-22T22:25:15.701Z,46.16
2018-09-22T22:27:44.044Z,46.92
2018-09-22T22:30:12.247Z,47.70
2018-09-22T22:32:40.712Z,48.02
2018-09-22T22:35:09.643Z,48.19
2018-09-22T22:37:37.792Z,49.64
2018-09-22T22:40:07.198Z,49.83
2018-09-22T22:42:34.973Z,50.38
2018-09-22T22:45:03.087Z,50.88
2018-09-22T22:47:32.175Z,51.76
2018-09-22T22:50:00.056Z,52.51
2018-09-22T22:52:27.977Z,53.53
2018-09-22T22:54:55.750Z,54.00
2018-09-22T22:57:23.828Z,54.47
2018-09-22T22:59:51.655Z,54.89
2018-09-22T23:02:20.180Z,54.82
2018-09-22T23:04:47.938Z,55.17
2018-09-22T23:07:15.788Z,55.42
2018-09-22T23:09:44.472Z,55.11
2018-09-22T23:12:12.441Z,55.26
2018-09-22T23:14:40.289Z,55.22
2018-09-22T23:17:08.163Z,55.38
2018-09-22T23:19:36.291Z,55.17
2018-09-22T23:22:04.508Z,55.27
2018-09-22T23:24:32.377Z,55.82
2018-09-22T23:27:00.195Z,56.48
2018-09-22T23:29:28.237Z,56.19
2018-09-22T23:31:56.218Z,56.68
2018-09-22T23:34:24.094Z,56.48
2018-09-22T23:36:52.041Z,57.19
2018-09-22T23:39:19.959Z,58.01
2018-09-22T23:41:47.866Z,58.03
2018-09-22T23:44:16.649Z,58.70
2018-09-22T23:46:44.680Z,59.39
2018-09-22T23:49:12.588Z,59.85
2018-09-22T23:51:41.159Z,60.12
2018-09-22T23:54:08.974Z,59.91
2018-09-22T23:56:36.824Z,60.67
2018-09-22T23:59:04.659Z,60.85
